Time;durP1;ratioP1;P1;durP2;ratioP2;P2;SDS_P1;SDS_P2;PMS_P1;PMS_P2;Temp;Humidity;BMP_temperature;BMP_pressure;BME280_temperature;BME280_humidity;BME280_pressure;Samples;Min_cycle;Max_cycle;Signal;HPM_P1;HPM_P2
2022/07/30 00:00:44;;;;;;;;;;;;;;;14.86;62.12;96795.06;6222271;28;20354;-65
2022/07/30 00:03:48;;;;;;;;;;;;;;;15.04;62.45;96798.81;6221352;28;19933;-66
2022/07/30 00:06:49;;;;;;;;;;;;;;;15.02;62.28;96790.16;6220957;28;20435;-66
2022/07/30 00:09:50;;;;;;;;;;;;;;;15.09;62.24;96803.75;6222229;28;19929;-66
2022/07/30 00:12:53;;;;;;;;;;;;;;;15.24;62.25;96809.56;6222329;28;19932;-67
2022/07/30 00:15:54;;;;;;;;;;;;;;;15.38;61.87;96805.72;6221694;28;19976;-66
2022/07/30 00:18:56;;;;;;;;;;;;;;;15.49;61.90;96803.00;6222081;28;20319;-65
2022/07/30 00:21:59;;;;;;;;;;;;;;;15.55;61.56;96797.16;6221542;28;19932;-65
2022/07/30 00:25:06;;;;;;;;;;;;;;;15.50;61.45;96799.38;6221968;28;20307;-66
2022/07/30 00:28:07;;;;;;;;;;;;;;;15.55;61.54;96806.94;6222009;28;20322;-65
2022/07/30 00:31:10;;;;;;;;;;;;;;;15.56;61.39;96803.31;6221990;28;20288;-66
2022/07/30 00:34:12;;;;;;;;;;;;;;;15.62;61.31;96803.59;6221751;28;20320;-64
2022/07/30 00:37:17;;;;;;;;;;;;;;;15.67;61.26;96797.91;6221975;28;19926;-65
2022/07/30 00:40:23;;;;;;;;;;;;;;;15.74;61.13;96800.91;6221814;28;20319;-66
2022/07/30 00:43:27;;;;;;;;;;;;;;;15.94;61.17;96792.06;6219646;28;19932;-65
2022/07/30 00:46:30;;;;;;;;;;;;;;;15.94;60.78;96792.91;6221732;28;19925;-65
2022/07/30 00:49:33;;;;;;;;;;;;;;;16.04;60.82;96787.59;6221827;28;19925;-64
2022/07/30 00:52:38;;;;;;;;;;;;;;;16.08;60.60;96791.69;6221600;28;19925;-65
2022/07/30 00:55:39;;;;;;;;;;;;;;;16.15;60.32;96790.16;6221517;28;19952;-65
2022/07/30 00:58:43;;;;;;;;;;;;;;;16.23;60.22;96801.91;6221653;28;19925;-65
2022/07/30 01:01:46;;;;;;;;;;;;;;;16.31;60.10;96794.13;6221410;28;20176;-65
2022/07/30 01:04:47;;;;;;;;;;;;;;;16.39;59.73;96787.13;6221510;28;19925;-64
2022/07/30 01:07:53;;;;;;;;;;;;;;;16.46;59.48;96792.72;6221299;28;19926;-65
2022/07/30 01:10:57;;;;;;;;;;;;;;;16.63;59.12;96799.16;6220945;28;20303;-66
2022/07/30 01:14:01;;;;;;;;;;;;;;;16.72;59.04;96803.66;6221382;28;19925;-66
2022/07/30 01:17:02;;;;;;;;;;;;;;;16.82;58.39;96801.03;6221058;28;19929;-65
2022/07/30 01:20:05;;;;;;;;;;;;;;;16.84;58.34;96804.38;6221352;28;19925;-65
2022/07/30 01:23:26;;;;;;;;;;;;;;;16.83;58.43;96805.38;6221152;28;19921;-65
2022/07/30 01:26:28;;;;;;;;;;;;;;;16.90;58.19;96808.28;6222066;28;20414;-65
2022/07/30 01:29:30;;;;;;;;;;;;;;;16.98;58.21;96803.94;6226002;28;20307;-65
2022/07/30 01:32:35;;;;;;;;;;;;;;;17.08;57.95;96819.06;6225898;28;19926;-65
2022/07/30 01:35:38;;;;;;;;;;;;;;;17.21;57.74;96811.63;6225317;28;19932;-66
2022/07/30 01:38:42;;;;;;;;;;;;;;;17.27;57.57;96813.75;6225456;28;19929;-66
2022/07/30 01:41:48;;;;;;;;;;;;;;;17.36;57.46;96810.22;6225702;28;19925;-66
2022/07/30 01:44:55;;;;;;;;;;;;;;;17.37;57.50;96814.53;6225682;28;19925;-65
2022/07/30 01:47:57;;;;;;;;;;;;;;;17.49;57.11;96813.41;6225085;28;19948;-65
2022/07/30 01:51:02;;;;;;;;;;;;;;;17.60;56.98;96819.53;6225570;28;19925;-65
2022/07/30 01:54:09;;;;;;;;;;;;;;;17.72;56.69;96819.22;6225369;28;19925;-66
2022/07/30 01:57:11;;;;;;;;;;;;;;;17.86;56.37;96820.59;6225256;28;19925;-65
2022/07/30 02:00:13;;;;;;;;;;;;;;;17.91;56.12;96818.31;6224713;28;20391;-66
2022/07/30 02:03:14;;;;;;;;;;;;;;;17.91;55.96;96822.81;6225201;28;19925;-64
2022/07/30 02:06:22;;;;;;;;;;;;;;;17.96;55.78;96815.22;6225239;28;20376;-65
2022/07/30 02:09:27;;;;;;;;;;;;;;;18.05;55.47;96819.66;6225030;28;19925;-65
2022/07/30 02:12:29;;;;;;;;;;;;;;;18.14;55.33;96820.59;6223608;28;19932;-65
2022/07/30 02:15:58;;;;;;;;;;;;;;;18.31;54.91;96819.81;6223708;28;19933;-65
2022/07/30 02:19:05;;;;;;;;;;;;;;;18.42;54.32;96821.44;6224764;28;19932;-65
2022/07/30 02:22:12;;;;;;;;;;;;;;;18.45;54.76;96821.13;6224853;28;19925;-66
2022/07/30 02:25:19;;;;;;;;;;;;;;;18.55;54.37;96821.91;6224257;28;19925;-64
2022/07/30 02:28:23;;;;;;;;;;;;;;;18.65;54.07;96811.19;6224807;28;19925;-65
2022/07/30 02:31:26;;;;;;;;;;;;;;;18.69;53.97;96819.72;6224224;28;19932;-66
2022/07/30 02:34:28;;;;;;;;;;;;;;;18.73;53.99;96813.09;6224302;28;19926;-66
2022/07/30 02:37:31;;;;;;;;;;;;;;;18.84;53.61;96816.41;6222896;28;20383;-66
2022/07/30 02:40:34;;;;;;;;;;;;;;;18.95;53.58;96817.16;6224165;28;19926;-65
2022/07/30 02:43:40;;;;;;;;;;;;;;;19.05;53.38;96817.91;6224524;28;19925;-66
2022/07/30 02:46:42;;;;;;;;;;;;;;;19.21;52.78;96806.53;6224324;28;19925;-66
2022/07/30 02:49:45;;;;;;;;;;;;;;;19.42;52.45;96814.19;6223862;28;20019;-66
2022/07/30 02:52:47;;;;;;;;;;;;;;;19.63;52.12;96822.69;6223768;28;19953;-65
2022/07/30 02:55:50;;;;;;;;;;;;;;;19.83;51.66;96823.34;6223525;28;20418;-66
2022/07/30 02:58:53;;;;;;;;;;;;;;;20.09;51.16;96823.28;6223898;28;19932;-65
2022/07/30 03:01:54;;;;;;;;;;;;;;;20.15;50.99;96814.63;6223385;28;20326;-65
2022/07/30 03:05:01;;;;;;;;;;;;;;;20.23;50.79;96807.66;6223724;28;20354;-65
2022/07/30 03:08:10;;;;;;;;;;;;;;;20.21;50.88;96820.34;6223836;28;20415;-65
2022/07/30 03:11:17;;;;;;;;;;;;;;;20.24;50.65;96820.00;6223555;28;19925;-66
2022/07/30 03:14:18;;;;;;;;;;;;;;;20.30;50.28;96808.72;6223487;28;19932;-65
2022/07/30 03:17:21;;;;;;;;;;;;;;;20.34;50.15;96807.38;6223678;28;20035;-65
2022/07/30 03:20:24;;;;;;;;;;;;;;;20.28;50.34;96808.03;6222808;28;19929;-66
2022/07/30 03:23:32;;;;;;;;;;;;;;;20.43;49.93;96811.72;6223495;28;19925;-66
2022/07/30 03:26:38;;;;;;;;;;;;;;;20.64;49.50;96811.34;6223266;28;19926;-66
2022/07/30 03:29:42;;;;;;;;;;;;;;;20.80;49.22;96806.00;6222753;28;19925;-65
2022/07/30 03:32:46;;;;;;;;;;;;;;;20.95;48.75;96808.88;6222980;28;20315;-66
2022/07/30 03:35:50;;;;;;;;;;;;;;;21.06;48.82;96810.38;6222972;28;19980;-66
2022/07/30 03:38:55;;;;;;;;;;;;;;;21.30;48.40;96801.50;6223003;28;19925;-65
2022/07/30 03:41:57;;;;;;;;;;;;;;;21.53;47.89;96810.53;6221381;28;20020;-65
2022/07/30 03:45:00;;;;;;;;;;;;;;;21.62;47.64;96811.38;6222530;28;19932;-64
2022/07/30 03:48:07;;;;;;;;;;;;;;;21.76;47.20;96820.53;6222765;28;19926;-66
2022/07/30 03:51:10;;;;;;;;;;;;;;;21.83;47.10;96823.41;6222338;28;20021;-66
2022/07/30 03:54:12;;;;;;;;;;;;;;;21.96;47.06;96823.69;6222585;28;19925;-67
2022/07/30 03:57:15;;;;;;;;;;;;;;;22.16;46.30;96824.94;6222293;28;19929;-65
2022/07/30 04:00:20;;;;;;;;;;;;;;;22.27;46.20;96826.44;6222535;28;20079;-66
2022/07/30 04:03:27;;;;;;;;;;;;;;;22.53;45.90;96825.31;6222425;28;19921;-66
2022/07/30 04:06:29;;;;;;;;;;;;;;;22.67;45.62;96821.88;6222061;28;20004;-65
2022/07/30 04:09:32;;;;;;;;;;;;;;;22.93;45.22;96831.44;6222017;28;20012;-65
2022/07/30 04:12:36;;;;;;;;;;;;;;;23.23;44.93;96827.09;6222187;28;19925;-65
2022/07/30 04:16:00;;;;;;;;;;;;;;;23.16;44.99;96832.34;6222263;28;19925;-66
2022/07/30 04:19:07;;;;;;;;;;;;;;;23.25;44.64;96830.44;6222088;28;19933;-66
2022/07/30 04:22:15;;;;;;;;;;;;;;;23.46;44.32;96822.50;6222149;28;19925;-66
2022/07/30 04:25:19;;;;;;;;;;;;;;;23.79;43.66;96832.16;6221986;28;19929;-66
2022/07/30 04:28:24;;;;;;;;;;;;;;;24.17;43.35;96830.22;6220564;28;19929;-66
2022/07/30 04:31:34;;;;;;;;;;;;;;;24.56;42.59;96835.31;6222161;28;19930;-66
2022/07/30 04:34:35;;;;;;;;;;;;;;;25.10;41.90;96829.50;6221700;28;20315;-68
2022/07/30 04:37:38;;;;;;;;;;;;;;;25.70;41.04;96837.28;6221561;28;19925;-65
2022/07/30 04:40:40;;;;;;;;;;;;;;;26.02;39.86;96838.59;6221472;28;19926;-66
2022/07/30 04:43:43;;;;;;;;;;;;;;;26.62;38.28;96842.47;6221513;28;20016;-65
2022/07/30 04:46:47;;;;;;;;;;;;;;;28.96;35.18;96844.09;6221711;28;19933;-65
2022/07/30 04:49:51;;;;;;;;;;;;;;;31.59;31.38;96852.72;6221662;28;19968;-65
2022/07/30 04:52:54;;;;;;;;;;;;;;;32.04;31.19;96852.22;6221401;28;19995;-65
2022/07/30 04:55:58;;;;;;;;;;;;;;;34.15;28.90;96858.84;6221249;28;19948;-66
2022/07/30 04:59:04;;;;;;;;;;;;;;;37.23;25.24;96859.78;6221395;28;19934;-66
2022/07/30 05:02:06;;;;;;;;;;;;;;;39.24;22.84;96857.38;6223934;28;19938;-66
2022/07/30 05:05:10;;;;;;;;;;;;;;;38.95;23.23;96859.16;6226485;28;20399;-66
2022/07/30 05:08:14;;;;;;;;;;;;;;;39.15;22.50;96856.31;6226096;28;19932;-66
2022/07/30 05:11:17;;;;;;;;;;;;;;;37.82;22.63;96856.59;6226381;28;20342;-65
2022/07/30 05:14:22;;;;;;;;;;;;;;;34.46;25.98;96850.28;6226569;28;20421;-67
2022/07/30 05:17:23;;;;;;;;;;;;;;;31.53;28.47;96834.63;6225861;28;19932;-66
2022/07/30 05:20:26;;;;;;;;;;;;;;;29.22;31.37;96831.47;6226339;28;19925;-66
2022/07/30 05:23:30;;;;;;;;;;;;;;;27.63;33.11;96832.72;6225943;28;19926;-66
2022/07/30 05:26:31;;;;;;;;;;;;;;;26.24;35.35;96822.31;6225826;28;20311;-66
2022/07/30 05:29:32;;;;;;;;;;;;;;;25.72;35.80;96825.28;6226292;28;19925;-66
2022/07/30 05:32:36;;;;;;;;;;;;;;;25.20;36.43;96828.38;6225969;28;19921;-66
2022/07/30 05:35:37;;;;;;;;;;;;;;;24.92;36.64;96828.28;6225334;28;20027;-66
2022/07/30 05:38:42;;;;;;;;;;;;;;;24.76;36.82;96822.09;6225624;28;19921;-66
2022/07/30 05:41:46;;;;;;;;;;;;;;;24.79;36.99;96826.25;6225744;28;19925;-66
2022/07/30 05:44:47;;;;;;;;;;;;;;;24.53;37.33;96824.94;6225276;28;19922;-66
2022/07/30 05:47:51;;;;;;;;;;;;;;;24.10;37.90;96824.75;6225382;28;20306;-66
2022/07/30 05:50:57;;;;;;;;;;;;;;;23.98;38.42;96820.88;6225305;28;19951;-66
2022/07/30 05:54:01;;;;;;;;;;;;;;;23.68;39.02;96815.44;6225013;28;20460;-67
2022/07/30 05:57:02;;;;;;;;;;;;;;;23.55;38.74;96815.22;6225252;28;19930;-65
2022/07/30 06:00:08;;;;;;;;;;;;;;;23.64;38.74;96819.50;6225102;28;19932;-66
2022/07/30 06:03:11;;;;;;;;;;;;;;;23.84;38.43;96827.06;6224927;28;19948;-66
2022/07/30 06:06:17;;;;;;;;;;;;;;;24.13;37.75;96827.06;6225162;28;20420;-66
2022/07/30 06:09:21;;;;;;;;;;;;;;;24.46;37.35;96829.41;6225156;28;20404;-66
2022/07/30 06:12:25;;;;;;;;;;;;;;;24.69;37.04;96823.06;6223985;28;19925;-66
2022/07/30 06:15:31;;;;;;;;;;;;;;;24.86;36.69;96824.50;6224810;28;20314;-66
2022/07/30 06:18:44;;;;;;;;;;;;;;;25.17;35.89;96820.69;6223657;28;19921;-65
2022/07/30 06:21:49;;;;;;;;;;;;;;;25.45;35.67;96821.56;6224912;28;19937;-66
2022/07/30 06:24:50;;;;;;;;;;;;;;;25.79;35.33;96825.38;6224554;28;19921;-65
2022/07/30 06:27:54;;;;;;;;;;;;;;;26.09;35.06;96825.97;6224579;28;19930;-67
2022/07/30 06:30:56;;;;;;;;;;;;;;;26.56;34.45;96826.25;6224382;28;20080;-65
2022/07/30 06:33:57;;;;;;;;;;;;;;;27.09;33.05;96829.09;6224471;28;19926;-65
2022/07/30 06:37:02;;;;;;;;;;;;;;;27.19;32.77;96821.47;6224386;28;19925;-65
2022/07/30 06:40:24;;;;;;;;;;;;;;;26.92;33.43;96825.97;6224448;28;19929;-67
2022/07/30 06:43:27;;;;;;;;;;;;;;;26.37;34.21;96830.50;6224250;28;19929;-66
2022/07/30 06:46:33;;;;;;;;;;;;;;;26.02;35.06;96830.53;6224256;28;20395;-66
2022/07/30 06:49:34;;;;;;;;;;;;;;;25.46;36.08;96825.09;6223921;28;19932;-65
2022/07/30 06:52:35;;;;;;;;;;;;;;;25.06;36.56;96820.16;6223329;28;20339;-65
2022/07/30 06:55:36;;;;;;;;;;;;;;;24.71;37.58;96821.00;6224083;28;20402;-66
2022/07/30 06:58:38;;;;;;;;;;;;;;;24.30;38.13;96824.19;6223649;28;19925;-65
2022/07/30 07:01:41;;;;;;;;;;;;;;;24.07;38.70;96829.69;6223659;28;20071;-66
2022/07/30 07:04:44;;;;;;;;;;;;;;;23.98;39.06;96827.09;6223838;28;19929;-66
2022/07/30 07:07:48;;;;;;;;;;;;;;;23.56;39.76;96822.28;6223613;28;19929;-66
2022/07/30 07:10:49;;;;;;;;;;;;;;;23.58;39.79;96822.94;6223406;28;19925;-65
2022/07/30 07:13:52;;;;;;;;;;;;;;;23.58;39.45;96820.25;6222968;28;19925;-66
2022/07/30 07:16:53;;;;;;;;;;;;;;;23.62;39.10;96821.53;6222971;28;20315;-66
2022/07/30 07:19:59;;;;;;;;;;;;;;;23.64;38.86;96816.84;6223346;28;19925;-66
2022/07/30 07:23:00;;;;;;;;;;;;;;;23.70;38.70;96809.88;6223184;28;19932;-66
2022/07/30 07:26:01;;;;;;;;;;;;;;;23.80;38.52;96818.53;6222945;28;19969;-66
2022/07/30 07:29:07;;;;;;;;;;;;;;;24.12;37.72;96817.34;6223270;28;19932;-66
2022/07/30 07:32:11;;;;;;;;;;;;;;;24.87;36.63;96812.69;6222894;28;19921;-66
2022/07/30 07:35:14;;;;;;;;;;;;;;;26.19;34.64;96814.84;6222391;28;19930;-66
2022/07/30 07:38:17;;;;;;;;;;;;;;;28.36;32.13;96816.41;6222986;28;20350;-66
2022/07/30 07:41:22;;;;;;;;;;;;;;;31.01;27.62;96818.84;6222630;28;19925;-66
2022/07/30 07:44:28;;;;;;;;;;;;;;;32.69;27.14;96817.72;6222707;28;19926;-66
2022/07/30 07:47:41;;;;;;;;;;;;;;;33.52;25.29;96822.63;6222496;28;19929;-65
2022/07/30 07:50:47;;;;;;;;;;;;;;;33.96;25.27;96828.22;6221494;28;19925;-65
2022/07/30 07:53:51;;;;;;;;;;;;;;;33.51;25.13;96826.38;6222616;28;19929;-66
2022/07/30 07:56:54;;;;;;;;;;;;;;;32.60;26.11;96809.91;6222437;28;20088;-67
2022/07/30 07:59:56;;;;;;;;;;;;;;;31.71;26.42;96812.78;6222207;28;20314;-66
2022/07/30 08:02:57;;;;;;;;;;;;;;;30.90;27.36;96810.66;6222207;28;19926;-66
2022/07/30 08:06:01;;;;;;;;;;;;;;;30.71;27.19;96813.38;6222341;28;20019;-66
2022/07/30 08:09:02;;;;;;;;;;;;;;;30.90;26.67;96810.66;6222370;28;19930;-65
2022/07/30 08:12:03;;;;;;;;;;;;;;;30.85;26.60;96808.63;6221683;28;19932;-66
2022/07/30 08:15:08;;;;;;;;;;;;;;;30.84;26.67;96805.09;6222413;28;20319;-65
2022/07/30 08:18:10;;;;;;;;;;;;;;;30.46;27.42;96804.50;6221899;28;20391;-66
2022/07/30 08:21:14;;;;;;;;;;;;;;;29.95;27.69;96815.47;6221854;28;20036;-65
2022/07/30 08:24:16;;;;;;;;;;;;;;;29.69;27.95;96811.09;6222153;28;19948;-66
2022/07/30 08:27:17;;;;;;;;;;;;;;;29.42;28.18;96804.22;6221360;28;19926;-66
2022/07/30 08:30:19;;;;;;;;;;;;;;;29.12;28.56;96804.03;6221346;28;19937;-66
2022/07/30 08:33:21;;;;;;;;;;;;;;;28.82;28.79;96804.59;6221760;28;19926;-66
2022/07/30 08:36:25;;;;;;;;;;;;;;;28.58;29.07;96803.44;6221145;28;20292;-66
2022/07/30 08:39:29;;;;;;;;;;;;;;;28.58;29.12;96798.03;6221511;28;20311;-67
2022/07/30 08:42:32;;;;;;;;;;;;;;;28.61;29.18;96806.53;6221327;28;19925;-66
2022/07/30 08:45:34;;;;;;;;;;;;;;;28.55;29.15;96802.00;6221459;28;19925;-65
2022/07/30 08:48:35;;;;;;;;;;;;;;;28.57;29.42;96797.22;6221522;28;20334;-65
2022/07/30 08:51:36;;;;;;;;;;;;;;;28.62;29.25;96799.25;6221010;28;19932;-65
2022/07/30 08:54:40;;;;;;;;;;;;;;;28.51;29.35;96798.06;6220660;28;20399;-66
2022/07/30 08:57:53;;;;;;;;;;;;;;;28.09;29.95;96794.84;6221211;28;20023;-65
2022/07/30 09:00:54;;;;;;;;;;;;;;;27.83;30.49;96800.28;6221445;28;19932;-65
2022/07/30 09:03:56;;;;;;;;;;;;;;;27.64;30.60;96797.38;6221207;28;20303;-66
2022/07/30 09:06:57;;;;;;;;;;;;;;;27.34;31.25;96796.97;6220949;28;19933;-65
2022/07/30 09:09:59;;;;;;;;;;;;;;;27.28;31.13;96797.78;6220241;28;20245;-66
2022/07/30 09:13:05;;;;;;;;;;;;;;;26.99;31.67;96793.56;6221059;28;19930;-65
2022/07/30 09:16:18;;;;;;;;;;;;;;;26.80;31.53;96793.31;6221138;28;19925;-65
2022/07/30 09:19:23;;;;;;;;;;;;;;;26.82;31.96;96796.66;6220855;28;19926;-65
2022/07/30 09:22:40;;;;;;;;;;;;;;;26.98;31.78;96797.31;6220805;28;19925;-67
2022/07/30 09:25:42;;;;;;;;;;;;;;;27.09;31.26;96794.84;6219570;28;19925;-65
2022/07/30 09:28:49;;;;;;;;;;;;;;;27.20;31.35;96798.00;6220855;28;20252;-65
2022/07/30 09:31:55;;;;;;;;;;;;;;;27.00;31.49;96800.63;6220274;28;19926;-66
2022/07/30 09:35:10;;;;;;;;;;;;;;;27.00;31.88;96798.75;6220979;28;19932;-65
2022/07/30 09:38:15;;;;;;;;;;;;;;;26.88;31.94;96803.94;6220914;28;19925;-66
2022/07/30 09:41:19;;;;;;;;;;;;;;;26.69;31.90;96793.91;6220562;28;20359;-66
2022/07/30 09:44:28;;;;;;;;;;;;;;;26.40;32.71;96790.47;6221065;28;19937;-66
2022/07/30 09:47:32;;;;;;;;;;;;;;;26.22;32.95;96798.28;6222523;28;19925;-66
2022/07/30 09:50:33;;;;;;;;;;;;;;;26.17;33.22;96795.34;6225101;28;20056;-65
2022/07/30 09:53:35;;;;;;;;;;;;;;;26.09;33.63;96787.41;6225014;28;19925;-66
2022/07/30 09:56:39;;;;;;;;;;;;;;;26.03;33.82;96799.00;6225389;28;19925;-65
2022/07/30 09:59:40;;;;;;;;;;;;;;;26.17;33.76;96795.34;6224939;28;20071;-66
2022/07/30 10:02:44;;;;;;;;;;;;;;;25.87;34.31;96800.13;6224824;28;19929;-66
2022/07/30 10:05:49;;;;;;;;;;;;;;;25.79;34.03;96798.41;6225055;28;19932;-66
2022/07/30 10:08:52;;;;;;;;;;;;;;;25.78;34.00;96791.34;6224902;28;19932;-66
2022/07/30 10:11:57;;;;;;;;;;;;;;;26.03;34.05;96788.22;6224827;28;19926;-66
2022/07/30 10:15:01;;;;;;;;;;;;;;;26.31;33.14;96793.53;6224570;28;19947;-65
2022/07/30 10:18:05;;;;;;;;;;;;;;;26.37;32.96;96785.47;6224379;28;19931;-65
2022/07/30 10:21:09;;;;;;;;;;;;;;;26.68;33.04;96784.16;6224448;28;19925;-65
2022/07/30 10:24:15;;;;;;;;;;;;;;;26.95;32.62;96789.59;6224800;28;19929;-65
2022/07/30 10:27:19;;;;;;;;;;;;;;;27.04;32.55;96786.53;6224237;28;20388;-65
2022/07/30 10:30:20;;;;;;;;;;;;;;;27.15;32.25;96785.09;6224152;28;19925;-66
2022/07/30 10:33:28;;;;;;;;;;;;;;;27.13;32.19;96781.75;6224408;28;19921;-65
2022/07/30 10:36:30;;;;;;;;;;;;;;;27.01;32.31;96786.13;6224460;28;20408;-65
2022/07/30 10:39:36;;;;;;;;;;;;;;;27.06;32.31;96799.81;6224348;28;20403;-65
2022/07/30 10:43:00;;;;;;;;;;;;;;;27.25;31.87;96793.63;6223272;28;19928;-65
2022/07/30 10:46:04;;;;;;;;;;;;;;;27.33;32.06;96789.09;6223959;28;19926;-65
2022/07/30 10:49:12;;;;;;;;;;;;;;;27.39;32.10;96782.84;6224091;28;19929;-65
2022/07/30 10:52:36;;;;;;;;;;;;;;;27.56;31.65;96789.47;6223880;28;20294;-64
2022/07/30 10:55:41;;;;;;;;;;;;;;;27.46;31.96;96789.06;6223821;28;20002;-66
2022/07/30 10:59:02;;;;;;;;;;;;;;;27.48;32.04;96781.59;6222968;28;19930;-66
2022/07/30 11:02:07;;;;;;;;;;;;;;;27.59;31.74;96783.66;6223767;28;19926;-65
2022/07/30 11:05:17;;;;;;;;;;;;;;;27.69;31.82;96784.06;6223491;28;20015;-66
2022/07/30 11:08:28;;;;;;;;;;;;;;;27.93;31.53;96782.59;6222885;28;19961;-65
2022/07/30 11:11:42;;;;;;;;;;;;;;;28.30;31.09;96784.78;6223108;28;20359;-66
2022/07/30 11:14:48;;;;;;;;;;;;;;;28.80;30.43;96785.84;6222987;28;19925;-65
2022/07/30 11:18:12;;;;;;;;;;;;;;;29.40;29.98;96782.75;6221871;28;20291;-65
2022/07/30 11:21:20;;;;;;;;;;;;;;;30.19;29.06;96786.59;6222946;28;19932;-65
2022/07/30 11:24:41;;;;;;;;;;;;;;;30.60;28.60;96793.28;6222662;28;20426;-66
2022/07/30 11:27:49;;;;;;;;;;;;;;;30.72;27.44;96787.88;6221874;28;20379;-65
2022/07/30 11:30:52;;;;;;;;;;;;;;;30.54;28.10;96785.19;6222983;28;19925;-65
2022/07/30 11:34:14;;;;;;;;;;;;;;;30.18;28.07;96782.25;6223215;28;19925;-65
2022/07/30 11:37:17;;;;;;;;;;;;;;;29.87;28.65;96780.50;6223135;28;20024;-65
2022/07/30 11:40:19;;;;;;;;;;;;;;;29.80;28.37;96782.44;6222772;28;20384;-65
2022/07/30 11:43:28;;;;;;;;;;;;;;;29.63;28.46;96774.03;6222898;28;19929;-67
2022/07/30 11:46:29;;;;;;;;;;;;;;;29.48;28.25;96781.66;6222811;28;20031;-64
2022/07/30 11:49:36;;;;;;;;;;;;;;;29.14;28.53;96774.84;6222300;28;20322;-67
2022/07/30 11:52:37;;;;;;;;;;;;;;;28.68;28.75;96775.91;6222451;28;20421;-64
2022/07/30 11:55:42;;;;;;;;;;;;;;;28.25;29.60;96776.47;6222458;28;19930;-66
2022/07/30 11:58:48;;;;;;;;;;;;;;;28.11;29.88;96771.13;6222243;28;20016;-66
2022/07/30 12:02:00;;;;;;;;;;;;;;;28.06;29.78;96776.34;6222443;28;20318;-65
2022/07/30 12:05:03;;;;;;;;;;;;;;;27.74;30.45;96773.47;6222691;28;19968;-65
2022/07/30 12:08:05;;;;;;;;;;;;;;;27.43;31.21;96768.72;6222202;28;19925;-65
2022/07/30 12:11:09;;;;;;;;;;;;;;;27.02;31.75;96766.16;6221749;28;20310;-67
2022/07/30 12:14:10;;;;;;;;;;;;;;;26.74;32.03;96771.72;6221475;28;19937;-65
2022/07/30 12:17:13;;;;;;;;;;;;;;;26.50;32.18;96778.47;6221971;28;20391;-66
2022/07/30 12:20:18;;;;;;;;;;;;;;;26.19;33.01;96771.69;6221775;28;19925;-66
2022/07/30 12:23:23;;;;;;;;;;;;;;;25.90;33.62;96776.31;6221902;28;19933;-66
2022/07/30 12:26:29;;;;;;;;;;;;;;;25.70;33.80;96772.63;6221612;28;19925;-66
2022/07/30 12:29:31;;;;;;;;;;;;;;;25.43;34.21;96774.31;6221578;28;19933;-65
2022/07/30 12:32:35;;;;;;;;;;;;;;;25.29;34.51;96765.28;6221726;28;19929;-65
2022/07/30 12:35:42;;;;;;;;;;;;;;;25.02;34.97;96775.78;6220844;28;20370;-66
2022/07/30 12:38:49;;;;;;;;;;;;;;;24.85;35.51;96774.38;6221431;28;20024;-65
2022/07/30 12:41:56;;;;;;;;;;;;;;;24.70;35.66;96776.28;6220388;28;19971;-66
2022/07/30 12:44:58;;;;;;;;;;;;;;;24.59;35.94;96765.00;6221110;28;19933;-65
2022/07/30 12:48:08;;;;;;;;;;;;;;;24.56;36.10;96762.69;6221360;28;20307;-65
2022/07/30 12:51:12;;;;;;;;;;;;;;;24.49;36.08;96772.56;6221561;28;19925;-65
2022/07/30 12:54:16;;;;;;;;;;;;;;;24.49;36.32;96769.03;6221056;28;20015;-65
2022/07/30 12:57:22;;;;;;;;;;;;;;;24.42;36.29;96772.41;6221506;28;19941;-66
2022/07/30 13:00:26;;;;;;;;;;;;;;;24.41;36.54;96772.63;6221367;28;19922;-65
2022/07/30 13:03:38;;;;;;;;;;;;;;;24.36;36.69;96775.88;6221375;28;19926;-66
2022/07/30 13:06:40;;;;;;;;;;;;;;;24.45;36.57;96768.56;6221033;28;19948;-66
2022/07/30 13:09:41;;;;;;;;;;;;;;;24.39;36.60;96769.28;6221227;28;19933;-66
2022/07/30 13:12:44;;;;;;;;;;;;;;;24.43;36.50;96767.94;6220711;28;19925;-65
2022/07/30 13:15:55;;;;;;;;;;;;;;;24.44;36.75;96764.22;6220969;28;19937;-65
2022/07/30 13:18:59;;;;;;;;;;;;;;;24.41;37.13;96764.56;6221153;28;19929;-66
2022/07/30 13:22:00;;;;;;;;;;;;;;;24.42;36.78;96763.53;6221993;28;19925;-65
2022/07/30 13:25:02;;;;;;;;;;;;;;;24.34;37.16;96760.94;6225892;28;20426;-65
2022/07/30 13:28:04;;;;;;;;;;;;;;;24.35;37.23;96758.09;6225746;28;20303;-66
2022/07/30 13:31:06;;;;;;;;;;;;;;;24.28;37.17;96762.53;6225387;28;20011;-65
2022/07/30 13:34:10;;;;;;;;;;;;;;;24.31;36.88;96755.94;6225808;28;19928;-66
2022/07/30 13:37:11;;;;;;;;;;;;;;;24.35;37.16;96757.25;6225881;28;19925;-66
2022/07/30 13:40:16;;;;;;;;;;;;;;;24.40;36.97;96765.56;6225609;28;20413;-66
2022/07/30 13:43:17;;;;;;;;;;;;;;;24.46;36.89;96761.31;6225411;28;19921;-65
2022/07/30 13:46:18;;;;;;;;;;;;;;;24.42;36.85;96768.91;6224945;28;19925;-66
2022/07/30 13:49:19;;;;;;;;;;;;;;;24.41;36.94;96769.94;6225604;28;19925;-66
2022/07/30 13:52:22;;;;;;;;;;;;;;;24.43;36.90;96767.94;6225266;28;19931;-66
2022/07/30 13:55:23;;;;;;;;;;;;;;;24.41;37.00;96768.06;6224829;28;19932;-65
2022/07/30 13:58:27;;;;;;;;;;;;;;;24.43;36.92;96770.63;6225169;28;19925;-66
2022/07/30 14:01:34;;;;;;;;;;;;;;;24.40;37.14;96770.94;6224891;28;20016;-65
2022/07/30 14:04:38;;;;;;;;;;;;;;;24.37;37.08;96769.50;6225266;28;19925;-66
2022/07/30 14:07:41;;;;;;;;;;;;;;;24.35;37.42;96763.47;6225087;28;19934;-66
2022/07/30 14:10:47;;;;;;;;;;;;;;;24.36;37.21;96769.66;6225070;28;19935;-66
2022/07/30 14:13:51;;;;;;;;;;;;;;;24.23;37.34;96764.13;6225018;28;19926;-65
2022/07/30 14:16:52;;;;;;;;;;;;;;;24.16;37.48;96764.88;6224642;28;19932;-65
2022/07/30 14:19:53;;;;;;;;;;;;;;;24.17;37.82;96763.00;6224548;28;19951;-66
2022/07/30 14:22:54;;;;;;;;;;;;;;;24.06;37.70;96758.97;6224409;28;19926;-65
2022/07/30 14:25:55;;;;;;;;;;;;;;;24.01;37.95;96760.53;6224753;28;19926;-65
2022/07/30 14:28:56;;;;;;;;;;;;;;;23.96;38.06;96758.41;6224628;28;19925;-66
2022/07/30 14:32:00;;;;;;;;;;;;;;;23.89;38.30;96749.41;6224744;28;19925;-66
2022/07/30 14:35:01;;;;;;;;;;;;;;;23.82;38.45;96753.88;6223150;28;19922;-66
2022/07/30 14:38:04;;;;;;;;;;;;;;;23.77;38.37;96764.34;6224196;28;19984;-67
2022/07/30 14:41:08;;;;;;;;;;;;;;;23.70;38.73;96767.78;6224156;28;20395;-67
2022/07/30 14:44:12;;;;;;;;;;;;;;;23.63;38.80;96769.47;6223807;28;19933;-66
2022/07/30 14:47:15;;;;;;;;;;;;;;;23.59;38.79;96762.81;6223826;28;20028;-66
2022/07/30 14:50:17;;;;;;;;;;;;;;;23.57;39.15;96764.84;6223624;28;20027;-66
2022/07/30 14:53:20;;;;;;;;;;;;;;;23.51;39.30;96754.84;6224121;28;19925;-66
2022/07/30 14:56:23;;;;;;;;;;;;;;;23.49;39.64;96756.88;6223929;28;19929;-66
2022/07/30 14:59:26;;;;;;;;;;;;;;;23.43;39.83;96754.91;6223850;28;19925;-66
2022/07/30 15:02:29;;;;;;;;;;;;;;;23.33;40.07;96749.81;6223859;28;20380;-66
2022/07/30 15:05:30;;;;;;;;;;;;;;;23.23;40.29;96747.38;6222632;28;19926;-66
2022/07/30 15:08:32;;;;;;;;;;;;;;;23.13;40.35;96746.81;6223286;28;19933;-65
2022/07/30 15:11:33;;;;;;;;;;;;;;;23.03;40.61;96746.22;6223544;28;19925;-66
2022/07/30 15:14:35;;;;;;;;;;;;;;;23.01;40.92;96748.25;6223565;28;19926;-67
2022/07/30 15:17:39;;;;;;;;;;;;;;;22.95;40.90;96752.47;6223288;28;19925;-66
2022/07/30 15:20:43;;;;;;;;;;;;;;;22.88;41.16;96750.69;6223132;28;19929;-66
2022/07/30 15:23:46;;;;;;;;;;;;;;;22.84;41.42;96753.72;6223120;28;19925;-65
2022/07/30 15:26:50;;;;;;;;;;;;;;;22.76;41.41;96751.09;6222950;28;19925;-65
2022/07/30 15:29:54;;;;;;;;;;;;;;;22.70;41.57;96745.59;6222972;28;20311;-66
2022/07/30 15:32:57;;;;;;;;;;;;;;;22.64;41.72;96753.34;6223252;28;19925;-65
2022/07/30 15:35:59;;;;;;;;;;;;;;;22.57;41.74;96746.22;6222763;28;20272;-65
2022/07/30 15:39:02;;;;;;;;;;;;;;;22.50;41.80;96746.06;6222637;28;20367;-66
2022/07/30 15:42:04;;;;;;;;;;;;;;;22.44;42.11;96737.91;6222736;28;20035;-65
2022/07/30 15:45:07;;;;;;;;;;;;;;;22.39;42.49;96733.06;6222032;28;19925;-65
2022/07/30 15:48:08;;;;;;;;;;;;;;;22.30;42.52;96739.50;6222542;28;20023;-66
2022/07/30 15:51:17;;;;;;;;;;;;;;;22.22;42.93;96743.03;6222723;28;19925;-66
2022/07/30 15:54:21;;;;;;;;;;;;;;;22.09;43.20;96743.59;6222642;28;19925;-66
2022/07/30 15:57:25;;;;;;;;;;;;;;;22.01;43.37;96743.63;6222392;28;19926;-66
2022/07/30 16:00:27;;;;;;;;;;;;;;;21.89;43.76;96743.19;6221561;28;20413;-66